Time;durP1;ratioP1;P1;durP2;ratioP2;P2;SDS_P1;SDS_P2;PMS_P1;PMS_P2;Temp;Humidity;BMP_temperature;BMP_pressure;BME280_temperature;BME280_humidity;BME280_pressure;Samples;Min_cycle;Max_cycle;Signal;HPM_P1;HPM_P2
2023/06/09 00:04:59;;;;;;;3.70;3.40;;;;;;;19.61;65.15;96668.34;10502777;28;20434;-74
2023/06/09 00:10:19;;;;;;;3.45;3.15;;;;;;;19.61;65.08;96664.88;10486328;28;20050;-74
2023/06/09 00:15:39;;;;;;;3.40;3.10;;;;;;;19.60;65.08;96661.38;10500056;28;20464;-74
2023/06/09 00:20:59;;;;;;;4.22;3.40;;;;;;;19.61;65.12;96665.66;10499671;28;20044;-73
2023/06/09 00:26:18;;;;;;;4.60;3.35;;;;;;;19.61;65.18;96665.66;10499610;28;20106;-73
2023/06/09 00:31:41;;;;;;;3.85;3.50;;;;;;;19.61;65.26;96660.25;10485372;28;20045;-73
2023/06/09 00:37:01;;;;;;;4.15;3.70;;;;;;;19.61;65.29;96659.47;10499190;28;20045;-74
2023/06/09 00:42:22;;;;;;;3.30;3.00;;;;;;;19.60;65.26;96661.38;10484803;28;20091;-74
2023/06/09 00:47:41;;;;;;;3.40;2.92;;;;;;;19.61;65.37;96664.88;10498567;28;20040;-74
2023/06/09 00:53:00;;;;;;;4.00;3.40;;;;;;;19.61;65.39;96659.47;10498050;28;20053;-74
2023/06/09 00:58:20;;;;;;;3.60;3.30;;;;;;;19.60;65.24;96661.38;10498116;28;20071;-74
2023/06/09 01:03:40;;;;;;;3.28;2.97;;;;;;;19.60;65.15;96655.97;10489763;28;20048;-74
2023/06/09 01:09:03;;;;;;;3.33;2.90;;;;;;;19.61;65.31;96654.06;10483670;28;20044;-74
2023/06/09 01:14:47;;;;;;;3.30;3.00;;;;;;;19.60;65.31;96652.47;10497829;28;20048;-74
2023/06/09 01:20:08;;;;;;;3.20;3.00;;;;;;;19.60;65.42;96652.47;10483217;28;20051;-74
2023/06/09 01:25:41;;;;;;;2.92;2.72;;;;;;;19.60;65.36;96650.59;10483480;28;20452;-74
2023/06/09 01:31:02;;;;;;;3.70;2.90;;;;;;;19.59;65.39;96640.88;10483231;28;20052;-74
2023/06/09 01:36:22;;;;;;;3.35;2.95;;;;;;;19.59;65.40;96629.28;10483003;28;20404;-74
2023/06/09 01:41:42;;;;;;;3.40;3.10;;;;;;;19.59;65.52;96629.28;10483042;28;20097;-74
2023/06/09 01:47:03;;;;;;;3.10;2.90;;;;;;;19.61;65.40;96627.03;10482722;28;20143;-74
2023/06/09 01:52:45;;;;;;;3.22;2.95;;;;;;;19.60;65.52;96614.63;10482591;28;20051;-74
2023/06/09 01:58:10;;;;;;;2.88;2.67;;;;;;;19.60;65.57;96614.63;10496302;28;20040;-74
2023/06/09 02:03:30;;;;;;;2.80;2.60;;;;;;;19.60;65.43;96614.63;10473436;28;20053;-74
2023/06/09 02:08:50;;;;;;;3.03;2.80;;;;;;;19.60;65.44;96603.81;10468115;28;20089;-74
2023/06/09 02:14:10;;;;;;;3.13;2.83;;;;;;;19.59;65.38;96599.56;10495671;28;20458;-74
2023/06/09 02:19:30;;;;;;;3.03;2.65;;;;;;;19.60;65.44;96603.81;10495693;28;20416;-74
2023/06/09 02:24:50;;;;;;;2.95;2.75;;;;;;;19.57;65.40;96613.41;10481580;28;20045;-74
2023/06/09 02:30:10;;;;;;;2.60;2.40;;;;;;;19.58;65.42;96597.97;10510361;28;20454;-74
2023/06/09 02:35:30;;;;;;;3.10;2.80;;;;;;;19.58;65.41;96598.75;10510626;28;20115;-74
2023/06/09 02:40:50;;;;;;;3.00;2.70;;;;;;;19.57;65.38;96591.78;10481358;28;20056;-74
2023/06/09 02:46:10;;;;;;;3.03;2.83;;;;;;;19.59;65.47;96599.56;10478104;28;20047;-74
2023/06/09 02:51:30;;;;;;;2.85;2.65;;;;;;;19.58;65.64;96592.56;10494647;28;20090;-74
2023/06/09 02:56:51;;;;;;;2.78;2.58;;;;;;;19.58;65.37;96597.97;10480958;28;20047;-74
2023/06/09 03:02:11;;;;;;;2.90;2.65;;;;;;;19.58;65.40;96595.25;10476640;28;20048;-74
2023/06/09 03:07:31;;;;;;;2.83;2.63;;;;;;;19.58;65.32;96603.38;10480911;28;20052;-74
2023/06/09 03:12:52;;;;;;;3.00;2.80;;;;;;;19.56;65.34;96609.09;10508792;28;20048;-74
2023/06/09 03:18:13;;;;;;;2.70;2.50;;;;;;;19.57;65.25;96610.69;10487529;28;20075;-74
2023/06/09 03:23:34;;;;;;;2.60;2.40;;;;;;;19.56;65.34;96615.31;10488227;28;20120;-74
2023/06/09 03:28:55;;;;;;;2.47;2.28;;;;;;;19.56;65.19;96598.28;10446721;28;20041;-74
2023/06/09 03:34:15;;;;;;;2.50;2.30;;;;;;;19.56;65.27;96601.00;10491957;28;20075;-74
2023/06/09 03:39:35;;;;;;;3.35;2.75;;;;;;;19.56;65.30;96596.41;10488025;28;20051;-74
2023/06/09 03:44:58;;;;;;;2.80;2.60;;;;;;;19.56;64.92;96599.09;10487796;28;20040;-74
2023/06/09 03:50:18;;;;;;;2.80;2.60;;;;;;;19.56;65.16;96604.50;10474341;28;20087;-74
2023/06/09 03:55:39;;;;;;;3.22;2.50;;;;;;;19.56;65.18;96609.91;10501303;28;20052;-74
2023/06/09 04:01:00;;;;;;;3.00;2.78;;;;;;;19.56;65.23;96607.19;10458223;28;20052;-73
2023/06/09 04:06:21;;;;;;;2.30;2.20;;;;;;;19.55;65.13;96597.50;10473710;28;20032;-72
2023/06/09 04:11:41;;;;;;;2.70;2.50;;;;;;;19.56;65.17;96609.91;10484197;28;20377;-72
2023/06/09 04:17:02;;;;;;;2.90;2.70;;;;;;;19.55;64.97;96608.31;10500038;28;20378;-71
2023/06/09 04:22:22;;;;;;;3.17;2.72;;;;;;;19.54;65.12;96600.53;10472146;28;20037;-72
2023/06/09 04:27:42;;;;;;;5.32;4.80;;;;;;;19.37;62.46;96614.97;10498562;28;20037;-72
2023/06/09 04:33:03;;;;;;;24.77;5.85;;;;;;;19.42;62.59;96605.84;10485344;28;20538;-72
2023/06/09 04:38:25;;;;;;;5.10;4.10;;;;;;;19.45;62.79;96611.41;10471459;28;20045;-72
2023/06/09 04:43:44;;;;;;;4.78;3.83;;;;;;;19.46;62.47;96618.38;10498640;28;20476;-71
2023/06/09 04:49:11;;;;;;;4.40;4.00;;;;;;;19.47;62.46;96614.56;10484719;28;20047;-73
2023/06/09 04:54:31;;;;;;;5.18;4.45;;;;;;;19.47;62.22;96617.28;10485046;28;20043;-72
2023/06/09 04:59:57;;;;;;;8.20;4.50;;;;;;;19.47;62.16;96628.06;10498549;28;20500;-73
2023/06/09 05:05:19;;;;;;;4.75;4.07;;;;;;;19.47;62.01;96632.69;10471673;28;20068;-73
2023/06/09 05:10:39;;;;;;;5.88;4.05;;;;;;;19.46;62.10;96639.97;10497643;28;20519;-72
2023/06/09 05:15:59;;;;;;;8.95;4.78;;;;;;;19.47;62.10;96647.00;10497476;28;20070;-72
2023/06/09 05:21:21;;;;;;;8.50;5.35;;;;;;;19.48;62.21;96662.09;10483329;28;20049;-72
2023/06/09 05:26:42;;;;;;;13.68;5.95;;;;;;;19.47;62.21;96662.41;10483328;28;20040;-73
2023/06/09 05:32:02;;;;;;;15.88;6.50;;;;;;;19.46;62.31;96666.22;10482838;28;20095;-72
2023/06/09 05:37:22;;;;;;;15.88;6.22;;;;;;;19.46;62.14;96664.31;10482625;28;20090;-72
2023/06/09 05:42:42;;;;;;;16.17;7.15;;;;;;;19.48;62.20;96667.50;10482428;28;20048;-73
2023/06/09 05:48:01;;;;;;;15.05;7.63;;;;;;;19.47;62.15;96665.91;10496444;28;20047;-72
2023/06/09 05:53:21;;;;;;;12.25;6.75;;;;;;;19.47;62.22;96671.31;10496090;28;20052;-72
2023/06/09 05:58:44;;;;;;;13.68;7.22;;;;;;;19.46;62.17;96663.53;10496103;28;20044;-72
2023/06/09 06:04:03;;;;;;;14.73;7.22;;;;;;;19.47;62.15;96675.94;10498999;28;20056;-72
2023/06/09 06:09:23;;;;;;;15.75;6.95;;;;;;;19.47;62.21;96682.09;10495833;28;20385;-73
2023/06/09 06:14:42;;;;;;;17.42;8.05;;;;;;;19.47;62.21;96687.50;10481467;28;20051;-72
2023/06/09 06:20:05;;;;;;;14.10;7.03;;;;;;;19.48;62.37;96691.81;10510513;28;20049;-72
2023/06/09 06:25:25;;;;;;;14.05;6.32;;;;;;;19.47;62.17;96692.13;10482078;28;20488;-72
2023/06/09 06:30:44;;;;;;;14.82;7.25;;;;;;;19.47;62.30;96679.41;10467457;28;20045;-73
2023/06/09 06:36:04;;;;;;;13.43;6.45;;;;;;;19.47;62.33;96676.72;10495046;28;20036;-72
2023/06/09 06:41:23;;;;;;;14.85;6.90;;;;;;;19.47;62.47;96682.09;10494996;28;20048;-73
2023/06/09 06:46:43;;;;;;;13.60;6.93;;;;;;;19.48;62.31;96683.72;10510089;28;20094;-72
2023/06/09 06:52:02;;;;;;;14.05;6.70;;;;;;;19.46;62.43;96691.31;10515441;28;20041;-73
2023/06/09 06:57:22;;;;;;;10.50;5.95;;;;;;;19.48;62.51;96705.31;10474855;28;20059;-72
2023/06/09 07:02:43;;;;;;;13.48;6.72;;;;;;;19.47;62.48;96692.13;10496837;28;20102;-73
2023/06/09 07:08:03;;;;;;;13.93;6.22;;;;;;;19.47;62.59;96689.44;10502658;28;20037;-73
2023/06/09 07:13:23;;;;;;;11.27;6.20;;;;;;;19.48;62.54;96689.13;10502470;28;20400;-73
2023/06/09 07:18:42;;;;;;;14.10;6.38;;;;;;;19.47;62.58;96687.50;10502150;28;20144;-72
2023/06/09 07:24:03;;;;;;;12.07;6.25;;;;;;;19.50;62.53;96694.16;10474063;28;20047;-72
2023/06/09 07:29:23;;;;;;;12.50;6.53;;;;;;;19.49;62.57;96690.69;10501820;28;20044;-72
2023/06/09 07:34:43;;;;;;;12.80;5.95;;;;;;;19.49;62.68;96695.31;10487518;28;20041;-73
2023/06/09 07:40:04;;;;;;;12.70;6.50;;;;;;;19.49;62.70;96687.97;10487284;28;20559;-72
2023/06/09 07:45:23;;;;;;;12.18;5.90;;;;;;;19.48;62.67;96681.00;10516209;28;20051;-72
2023/06/09 07:50:42;;;;;;;10.18;5.55;;;;;;;19.49;62.75;96677.16;10500909;28;20044;-72
2023/06/09 07:56:02;;;;;;;11.93;5.65;;;;;;;19.49;62.60;96685.28;10500563;28;20115;-72
2023/06/09 08:01:22;;;;;;;12.13;5.80;;;;;;;19.48;62.67;96678.31;10483109;28;20052;-73
2023/06/09 08:06:42;;;;;;;8.73;5.55;;;;;;;19.50;62.59;96686.06;10486145;28;20036;-73
2023/06/09 08:12:02;;;;;;;10.00;6.20;;;;;;;19.49;62.68;96685.28;10500323;28;20040;-73
2023/06/09 08:17:21;;;;;;;11.38;6.45;;;;;;;19.49;62.57;96682.56;10499968;28;20041;-72
2023/06/09 08:22:41;;;;;;;8.23;5.57;;;;;;;19.48;62.64;96672.91;10499770;28;20047;-73
2023/06/09 08:28:01;;;;;;;10.68;5.65;;;;;;;19.49;62.74;96682.56;10513864;28;20049;-73
2023/06/09 08:33:22;;;;;;;10.27;5.32;;;;;;;19.48;62.75;96681.00;10499663;28;20056;-72
2023/06/09 08:38:42;;;;;;;8.68;5.70;;;;;;;19.48;62.70;96683.72;10499570;28;20041;-73
2023/06/09 08:44:02;;;;;;;9.52;5.50;;;;;;;19.49;62.68;96679.09;10498717;28;20404;-73
2023/06/09 08:49:22;;;;;;;8.15;5.60;;;;;;;19.49;62.75;96673.69;10498830;28;20041;-72
2023/06/09 08:54:41;;;;;;;8.77;5.35;;;;;;;19.50;62.63;96667.97;10484386;28;20040;-72
2023/06/09 09:00:04;;;;;;;10.23;5.68;;;;;;;19.50;62.89;96665.25;10498590;28;20040;-72
2023/06/09 09:05:24;;;;;;;9.35;5.00;;;;;;;19.49;62.81;96662.88;10485453;28;20056;-72
2023/06/09 09:10:46;;;;;;;8.63;5.40;;;;;;;19.50;62.81;96676.06;10513015;28;20045;-73
2023/06/09 09:16:10;;;;;;;9.05;5.03;;;;;;;19.51;62.80;96682.25;10497980;28;20121;-72
2023/06/09 09:21:34;;;;;;;8.18;4.97;;;;;;;19.51;62.85;96684.97;10497497;28;20051;-73
2023/06/09 09:26:55;;;;;;;7.82;5.60;;;;;;;19.50;62.96;96697.69;10497423;28;20044;-72
2023/06/09 09:32:16;;;;;;;8.63;5.05;;;;;;;19.50;62.87;96686.88;10483542;28;20080;-72
2023/06/09 09:37:35;;;;;;;8.38;5.18;;;;;;;19.49;62.82;96682.56;10482960;28;20435;-72
2023/06/09 09:43:00;;;;;;;8.85;5.45;;;;;;;19.50;62.87;96686.88;10496476;28;20048;-72
2023/06/09 09:48:21;;;;;;;10.27;5.43;;;;;;;19.50;62.92;96684.16;10496500;28;20045;-73
2023/06/09 09:53:45;;;;;;;10.10;5.25;;;;;;;19.51;62.98;96682.25;10482104;28;20048;-71
2023/06/09 09:59:06;;;;;;;7.85;5.00;;;;;;;19.50;62.94;96678.78;10468343;28;20047;-72
2023/06/09 10:04:26;;;;;;;4.88;4.28;;;;;;;19.51;63.16;96669.53;10468115;28;20412;-73
2023/06/09 10:09:48;;;;;;;8.40;5.38;;;;;;;19.50;63.01;96665.25;10495760;28;20047;-72
2023/06/09 10:15:09;;;;;;;6.75;5.10;;;;;;;19.51;62.95;96669.53;10495673;28;20056;-72
2023/06/09 10:20:29;;;;;;;8.73;5.03;;;;;;;19.52;62.93;96659.50;10495407;28;20045;-72
2023/06/09 10:25:49;;;;;;;6.47;4.53;;;;;;;19.50;63.00;96662.56;10480843;28;20451;-72
2023/06/09 10:31:11;;;;;;;8.05;5.05;;;;;;;19.50;62.93;96649.06;10481653;28;20048;-72
2023/06/09 10:36:37;;;;;;;10.18;5.07;;;;;;;19.52;62.93;96648.69;10481289;28;20090;-72
2023/06/09 10:42:07;;;;;;;6.10;4.32;;;;;;;19.51;62.94;96647.91;10481111;28;20064;-72
2023/06/09 10:47:45;;;;;;;6.88;4.75;;;;;;;19.52;62.95;96652.22;10496556;28;20045;-73
2023/06/09 10:53:13;;;;;;;6.70;4.50;;;;;;;19.51;63.00;96647.91;10494755;28;20382;-72
2023/06/09 10:58:36;;;;;;;5.00;4.28;;;;;;;19.53;62.96;96644.88;10467130;28;20043;-72
2023/06/09 11:03:56;;;;;;;6.38;4.45;;;;;;;19.53;62.98;96642.19;10485669;28;20056;-72
2023/06/09 11:09:16;;;;;;;7.30;4.50;;;;;;;19.52;62.87;96636.00;10494565;28;20041;-72
2023/06/09 11:14:46;;;;;;;7.18;4.68;;;;;;;19.52;62.87;96641.41;10494726;28;20049;-73
2023/06/09 11:20:26;;;;;;;6.20;4.68;;;;;;;19.52;62.88;96632.50;10508558;28;20170;-72
2023/06/09 11:25:45;;;;;;;7.47;4.68;;;;;;;19.51;62.82;96639.81;10509269;28;20048;-72
2023/06/09 11:31:05;;;;;;;5.45;4.22;;;;;;;19.52;62.89;96646.00;10509324;28;20055;-72
2023/06/09 11:36:27;;;;;;;6.93;4.32;;;;;;;19.52;62.95;96646.81;10496669;28;20056;-72
2023/06/09 11:41:48;;;;;;;6.90;4.20;;;;;;;19.52;62.79;96648.69;10501250;28;20037;-72
2023/06/09 11:47:28;;;;;;;5.90;4.20;;;;;;;19.53;62.82;96642.19;10501223;28;20503;-72
2023/06/09 11:53:01;;;;;;;5.35;4.13;;;;;;;19.52;62.91;96643.28;10501134;28;20049;-72
2023/06/09 11:58:22;;;;;;;5.32;4.20;;;;;;;19.52;62.82;96641.41;10473085;28;20045;-72
2023/06/09 12:03:41;;;;;;;5.07;4.07;;;;;;;19.52;62.79;96636.00;10491962;28;20052;-73
2023/06/09 12:09:21;;;;;;;5.30;3.92;;;;;;;19.53;62.92;96637.56;10515413;28;20036;-72
2023/06/09 12:14:41;;;;;;;6.30;3.72;;;;;;;19.53;62.88;96631.38;10486352;28;20041;-73
2023/06/09 12:20:26;;;;;;;5.38;4.20;;;;;;;19.54;62.99;96649.97;10499924;28;20052;-72
2023/06/09 12:25:48;;;;;;;5.68;3.80;;;;;;;19.53;62.97;96653.00;10499865;28;20044;-73
2023/06/09 12:31:09;;;;;;;4.75;3.85;;;;;;;19.52;62.85;96663.03;10485397;28;20047;-72
2023/06/09 12:36:39;;;;;;;4.82;3.72;;;;;;;19.53;63.16;96664.59;10499251;28;20043;-73
2023/06/09 12:42:12;;;;;;;5.93;4.20;;;;;;;19.53;63.06;96661.09;10471265;28;20036;-72
2023/06/09 12:47:31;;;;;;;6.75;4.05;;;;;;;19.55;63.07;96665.06;10470117;28;20063;-73
2023/06/09 12:52:51;;;;;;;5.40;4.13;;;;;;;19.54;62.87;96658.06;10498444;28;20503;-73
2023/06/09 12:58:11;;;;;;;4.20;3.55;;;;;;;19.55;62.87;96642.66;10498307;28;20049;-73
2023/06/09 13:03:31;;;;;;;4.95;4.10;;;;;;;19.55;62.91;96638.03;10476028;28;20059;-73
2023/06/09 13:08:51;;;;;;;4.95;4.22;;;;;;;19.55;62.81;96637.25;10483992;28;20045;-72
2023/06/09 13:14:11;;;;;;;6.10;4.10;;;;;;;19.55;63.08;96634.53;10497885;28;20047;-73
2023/06/09 13:19:31;;;;;;;4.18;3.55;;;;;;;19.56;62.86;96638.81;10483630;28;20412;-72
2023/06/09 13:24:52;;;;;;;4.35;3.58;;;;;;;19.54;62.95;96639.16;10484083;28;20075;-73
2023/06/09 13:30:11;;;;;;;5.75;3.90;;;;;;;19.54;62.98;96643.75;10497377;28;20044;-73
2023/06/09 13:35:33;;;;;;;4.13;3.67;;;;;;;19.55;62.61;96648.84;10469266;28;20416;-72
2023/06/09 13:40:53;;;;;;;4.75;3.42;;;;;;;19.55;62.90;96645.34;10512043;28;20045;-72
2023/06/09 13:46:12;;;;;;;4.85;3.53;;;;;;;19.54;63.05;96643.75;10496712;28;20032;-72
2023/06/09 13:51:34;;;;;;;3.88;3.47;;;;;;;19.54;62.86;96635.66;10496872;28;20115;-72
2023/06/09 13:56:53;;;;;;;4.93;3.67;;;;;;;19.54;62.94;96638.34;10483853;28;20048;-72
2023/06/09 14:02:14;;;;;;;5.05;3.67;;;;;;;19.55;62.89;96643.44;10477418;28;20056;-72
2023/06/09 14:07:33;;;;;;;4.43;3.42;;;;;;;19.54;62.79;96636.47;10511879;28;20044;-72
2023/06/09 14:12:53;;;;;;;4.15;3.75;;;;;;;19.55;62.88;96629.94;10496314;28;20044;-72
2023/06/09 14:18:13;;;;;;;5.72;4.68;;;;;;;19.56;63.18;96628.00;10497016;28;20043;-73
2023/06/09 14:23:32;;;;;;;6.85;4.00;;;;;;;19.55;63.18;96631.84;10482221;28;20037;-72
2023/06/09 14:28:52;;;;;;;6.05;4.20;;;;;;;19.58;63.81;96630.38;10454775;28;20041;-72
2023/06/09 14:34:11;;;;;;;4.72;4.32;;;;;;;19.55;64.71;96632.63;10480733;28;20044;-73
2023/06/09 14:39:30;;;;;;;7.45;5.20;;;;;;;19.56;64.49;96636.94;10494673;28;20094;-73
2023/06/09 14:44:50;;;;;;;6.38;4.80;;;;;;;19.59;64.57;96629.28;10495758;28;20040;-73
2023/06/09 14:50:09;;;;;;;5.38;4.88;;;;;;;19.58;64.62;96633.88;10495702;28;20041;-72
2023/06/09 14:55:35;;;;;;;4.95;4.45;;;;;;;19.62;64.84;96632.13;10495379;28;20044;-73
2023/06/09 15:00:55;;;;;;;5.93;4.70;;;;;;;19.62;65.53;96626.72;10467005;28;20048;-75
2023/06/09 15:06:14;;;;;;;5.47;4.53;;;;;;;19.63;64.72;96631.00;10494690;28;20032;-74
2023/06/09 15:11:33;;;;;;;4.60;4.20;;;;;;;19.61;64.29;96627.81;10497102;28;20052;-75
2023/06/09 15:16:53;;;;;;;5.07;4.30;;;;;;;19.60;64.02;96645.19;10502418;28;20040;-75
2023/06/09 15:22:13;;;;;;;4.22;3.83;;;;;;;19.58;63.71;96636.56;10502026;28;20040;-75
2023/06/09 15:27:32;;;;;;;5.45;4.65;;;;;;;19.55;63.43;96648.84;10488028;28;20040;-74
2023/06/09 15:32:51;;;;;;;7.10;4.20;;;;;;;19.54;63.40;96660.78;10487728;28;20051;-75
2023/06/09 15:38:13;;;;;;;4.57;4.18;;;;;;;19.54;63.28;96660.78;10501641;28;20048;-74
2023/06/09 15:43:36;;;;;;;5.13;4.63;;;;;;;19.53;63.06;96655.69;10501371;28;20041;-74
2023/06/09 15:48:57;;;;;;;4.78;4.38;;;;;;;19.53;63.09;96655.69;10487889;28;20032;-74
2023/06/09 15:54:16;;;;;;;5.78;4.43;;;;;;;19.52;63.05;96651.41;10515953;28;20390;-75
2023/06/09 15:59:36;;;;;;;4.65;3.97;;;;;;;19.52;62.94;96651.41;10500874;28;20066;-75
2023/06/09 16:04:56;;;;;;;6.63;4.72;;;;;;;19.52;62.94;96641.41;10474727;28;20049;-75
2023/06/09 16:10:15;;;;;;;4.97;4.43;;;;;;;19.51;63.05;96647.13;10500433;28;20033;-75
2023/06/09 16:15:37;;;;;;;5.38;4.65;;;;;;;19.51;62.98;96641.72;10500335;28;20045;-75
2023/06/09 16:20:57;;;;;;;5.43;4.55;;;;;;;19.51;62.97;96650.63;10500109;28;20044;-75
2023/06/09 16:26:16;;;;;;;6.18;5.00;;;;;;;19.50;62.92;96649.06;10485767;28;20057;-75
2023/06/09 16:31:36;;;;;;;6.13;4.95;;;;;;;19.50;62.70;96643.66;10514634;28;20090;-73
2023/06/09 16:36:55;;;;;;;5.82;4.68;;;;;;;19.49;62.84;96633.94;10514689;28;20044;-73
2023/06/09 16:42:15;;;;;;;5.47;4.50;;;;;;;19.49;62.69;96631.25;10499783;28;20040;-73
2023/06/09 16:47:34;;;;;;;5.20;4.50;;;;;;;19.50;62.65;96621.22;10513018;28;20093;-73
2023/06/09 16:52:54;;;;;;;4.97;4.47;;;;;;;19.49;62.72;96619.66;10484664;28;20094;-73
2023/06/09 16:58:14;;;;;;;4.43;4.03;;;;;;;19.49;62.78;96617.72;10498675;28;20036;-72
2023/06/09 17:03:33;;;;;;;5.65;4.35;;;;;;;19.49;62.83;96623.13;10484297;28;20057;-72
2023/06/09 17:08:53;;;;;;;5.50;4.20;;;;;;;19.50;62.57;96627.44;10498109;28;20040;-72
2023/06/09 17:14:12;;;;;;;5.38;4.20;;;;;;;19.48;62.62;96624.28;10484072;28;20119;-73
2023/06/09 17:19:33;;;;;;;4.95;4.25;;;;;;;19.47;62.57;96628.06;10469986;28;20047;-73
2023/06/09 17:24:53;;;;;;;4.68;4.28;;;;;;;19.47;62.49;96628.06;10483561;28;20485;-73
2023/06/09 17:30:12;;;;;;;4.78;4.30;;;;;;;19.48;62.50;96643.19;10497396;28;20447;-73
2023/06/09 17:35:32;;;;;;;4.35;3.95;;;;;;;19.49;62.39;96643.97;10482859;28;20052;-73
2023/06/09 17:40:51;;;;;;;5.43;4.57;;;;;;;19.47;62.52;96644.28;10496942;28;20047;-73
2023/06/09 17:46:11;;;;;;;5.70;4.45;;;;;;;19.47;62.48;96649.69;10482718;28;20521;-72
2023/06/09 17:51:32;;;;;;;4.93;4.13;;;;;;;19.46;62.33;96642.69;10496749;28;20048;-73
2023/06/09 17:56:53;;;;;;;4.35;3.65;;;;;;;19.46;62.39;96650.00;10496175;28;20533;-73
2023/06/09 18:02:12;;;;;;;4.90;4.40;;;;;;;19.46;62.30;96653.50;10489584;28;20500;-73
2023/06/09 18:07:31;;;;;;;5.03;4.40;;;;;;;19.46;62.22;96650.00;10511704;28;20492;-73
2023/06/09 18:12:51;;;;;;;4.15;3.80;;;;;;;19.46;62.09;96650.78;10511106;28;20603;-73
2023/06/09 18:18:11;;;;;;;4.82;3.78;;;;;;;19.47;62.11;96641.59;10495882;28;20093;-73
2023/06/09 18:23:31;;;;;;;4.18;2.78;;;;;;;19.46;62.17;96642.69;10495691;28;20105;-73
2023/06/09 18:28:50;;;;;;;5.20;3.80;;;;;;;19.47;62.15;96638.88;10496274;28;20066;-73
2023/06/09 18:34:10;;;;;;;7.68;3.53;;;;;;;19.48;62.18;96654.00;10481687;28;20405;-73
2023/06/09 18:39:30;;;;;;;14.30;4.35;;;;;;;19.49;62.20;96662.88;10481202;28;20041;-72
2023/06/09 18:44:49;;;;;;;22.20;5.38;;;;;;;19.49;62.55;96668.28;10495195;28;20041;-73
2023/06/09 18:50:09;;;;;;;22.25;5.65;;;;;;;19.50;62.64;96661.75;10473458;28;20079;-73
2023/06/09 18:55:29;;;;;;;21.63;5.40;;;;;;;19.50;62.72;96664.44;10475625;28;20044;-73
2023/06/09 19:00:48;;;;;;;28.90;6.80;;;;;;;19.49;62.53;96657.47;10502802;28;20090;-73
2023/06/09 19:06:08;;;;;;;18.35;6.78;;;;;;;19.50;62.89;96657.16;10503183;28;20067;-73
2023/06/09 19:11:28;;;;;;;23.42;6.78;;;;;;;19.50;62.84;96662.56;10489033;28;20052;-73
2023/06/09 19:16:47;;;;;;;24.63;6.97;;;;;;;19.49;62.87;96660.97;10502859;28;20041;-72
2023/06/09 19:22:06;;;;;;;19.65;6.40;;;;;;;19.50;62.96;96670.66;10488708;28;20050;-72
2023/06/09 19:27:26;;;;;;;19.25;6.90;;;;;;;19.49;63.27;96674.47;10488649;28;20512;-72
2023/06/09 19:32:45;;;;;;;15.82;6.10;;;;;;;19.50;62.87;96672.56;10502812;28;20060;-73
2023/06/09 19:38:05;;;;;;;20.10;6.93;;;;;;;19.49;63.29;96674.47;10503685;28;20548;-73
2023/06/09 19:43:24;;;;;;;19.85;6.57;;;;;;;19.50;63.18;96665.25;10488472;28;20047;-72
2023/06/09 19:48:43;;;;;;;21.17;6.70;;;;;;;19.49;63.14;96671.75;10501961;28;20036;-72
2023/06/09 19:54:03;;;;;;;21.45;7.45;;;;;;;19.48;62.98;96667.50;10487834;28;20047;-72
2023/06/09 19:59:23;;;;;;;18.45;7.20;;;;;;;19.49;63.26;96679.88;10501779;28;20040;-72
2023/06/09 20:04:42;;;;;;;15.40;6.15;;;;;;;19.49;62.99;96673.69;10490250;28;20053;-72
2023/06/09 20:10:04;;;;;;;17.50;6.70;;;;;;;19.48;62.87;96678.31;10501464;28;20041;-72
2023/06/09 20:15:25;;;;;;;17.88;6.65;;;;;;;19.48;62.92;96670.19;10501007;28;20426;-73
2023/06/09 20:20:45;;;;;;;15.65;6.40;;;;;;;19.49;62.99;96673.69;10501070;28;20488;-73
2023/06/09 20:26:05;;;;;;;18.83;7.00;;;;;;;19.48;62.95;96672.91;10499964;28;20106;-73
2023/06/09 20:31:24;;;;;;;15.63;6.45;;;;;;;19.49;62.88;96673.69;10499664;28;20059;-72
2023/06/09 20:36:43;;;;;;;17.60;6.53;;;;;;;19.48;62.87;96689.13;10499569;28;20040;-72
2023/06/09 20:42:03;;;;;;;13.63;6.18;;;;;;;19.47;62.84;96684.81;10499635;28;20047;-72
2023/06/09 20:47:24;;;;;;;17.42;6.95;;;;;;;19.48;62.84;96691.81;10485060;28;20055;-72
2023/06/09 20:52:43;;;;;;;19.23;7.13;;;;;;;19.47;63.02;96702.94;10471025;28;20048;-72
2023/06/09 20:58:05;;;;;;;16.60;6.90;;;;;;;19.46;62.89;96704.81;10498761;28;20044;-72
2023/06/09 21:03:26;;;;;;;19.30;7.32;;;;;;;19.47;62.90;96705.63;10491121;28;20052;-72
2023/06/09 21:08:50;;;;;;;17.42;6.93;;;;;;;19.47;62.86;96681.31;10512919;28;20063;-72
2023/06/09 21:14:09;;;;;;;18.10;7.35;;;;;;;19.47;62.95;96676.72;10497975;28;20048;-72
2023/06/09 21:19:29;;;;;;;16.95;6.93;;;;;;;19.47;62.97;96675.94;10511816;28;20044;-72
2023/06/09 21:24:49;;;;;;;15.93;6.50;;;;;;;19.47;62.88;96657.78;10483477;28;20093;-72
2023/06/09 21:30:09;;;;;;;15.10;6.32;;;;;;;19.46;62.96;96645.38;10483425;28;20055;-72
2023/06/09 21:35:30;;;;;;;16.35;6.63;;;;;;;19.46;62.78;96652.72;10511276;28;20044;-73
2023/06/09 21:40:49;;;;;;;20.23;7.00;;;;;;;19.46;62.89;96647.31;10497039;28;20036;-73
2023/06/09 21:46:09;;;;;;;16.42;7.32;;;;;;;19.46;62.99;96658.91;10496743;28;20158;-73
2023/06/09 21:51:29;;;;;;;19.67;7.70;;;;;;;19.46;62.90;96655.41;10496565;28;20048;-73
2023/06/09 21:56:49;;;;;;;18.20;7.13;;;;;;;19.46;62.84;96655.41;10496302;28;20037;-73
2023/06/09 22:02:09;;;;;;;16.95;7.20;;;;;;;19.45;63.04;96659.25;10478066;28;20053;-73
2023/06/09 22:07:29;;;;;;;16.58;7.15;;;;;;;19.45;63.09;96643.03;10452752;28;20056;-73
2023/06/09 22:12:48;;;;;;;14.85;7.20;;;;;;;19.45;63.24;96654.63;10496065;28;20050;-73
2023/06/09 22:18:08;;;;;;;14.30;6.70;;;;;;;19.45;63.12;96651.94;10495925;28;20048;-72
2023/06/09 22:23:28;;;;;;;17.05;7.10;;;;;;;19.45;63.25;96651.94;10494779;28;20094;-73
2023/06/09 22:28:47;;;;;;;14.40;6.15;;;;;;;19.46;63.30;96653.50;10481524;28;20037;-73
2023/06/09 22:34:07;;;;;;;15.10;6.78;;;;;;;19.45;63.21;96646.53;10495463;28;20044;-73
2023/06/09 22:39:27;;;;;;;12.95;6.75;;;;;;;19.45;63.29;96654.63;10495520;28;20057;-72
2023/06/09 22:44:46;;;;;;;13.70;6.80;;;;;;;19.45;63.17;96643.81;10509327;28;20119;-72
2023/06/09 22:50:11;;;;;;;11.40;6.13;;;;;;;19.45;63.26;96643.03;10495198;28;20037;-72
2023/06/09 22:55:30;;;;;;;11.90;6.15;;;;;;;19.44;63.28;96634.13;10481482;28;20412;-72
2023/06/09 23:00:50;;;;;;;12.77;6.15;;;;;;;19.44;63.32;96636.81;10480248;28;20044;-72
2023/06/09 23:06:11;;;;;;;12.35;5.57;;;;;;;19.43;63.21;96632.56;10495080;28;20488;-72
2023/06/09 23:11:35;;;;;;;11.02;5.57;;;;;;;19.44;63.22;96639.53;10508966;28;20105;-72
2023/06/09 23:16:55;;;;;;;12.48;6.03;;;;;;;19.45;63.17;96651.16;10495249;28;20037;-72
2023/06/09 23:22:16;;;;;;;11.63;5.90;;;;;;;19.44;63.16;96636.03;10509622;28;20040;-72
2023/06/09 23:27:36;;;;;;;12.10;6.25;;;;;;;19.44;63.24;96639.53;10494411;28;20036;-72
2023/06/09 23:32:56;;;;;;;13.55;6.18;;;;;;;19.43;63.20;96629.84;10497353;28;20044;-72
2023/06/09 23:38:15;;;;;;;11.27;6.00;;;;;;;19.44;63.12;96633.34;10501520;28;20100;-72
2023/06/09 23:43:35;;;;;;;9.70;5.60;;;;;;;19.44;63.14;96625.22;10515301;28;20054;-72
2023/06/09 23:48:54;;;;;;;13.70;5.72;;;;;;;19.44;63.18;96622.53;10500962;28;20044;-72
2023/06/09 23:54:14;;;;;;;11.50;5.90;;;;;;;19.43;63.12;96624.44;10500431;28;20054;-72
2023/06/09 23:59:33;;;;;;;10.20;5.72;;;;;;;19.44;62.99;96623.31;10500588;28;20048;-72
